Time;durP1;ratioP1;P1;durP2;ratioP2;P2;SDS_P1;SDS_P2;PMS_P1;PMS_P2;Temp;Humidity;BMP_temperature;BMP_pressure;BME280_temperature;BME280_humidity;BME280_pressure;Samples;Min_cycle;Max_cycle;Signal;HPM_P1;HPM_P2
2022/06/12 08:36:59;;;;;;;;;2.50;2.50;;;;;;;;1572457;27;83573;-69
2022/06/12 08:37:45;;;;;;;;;2.00;2.00;;;;;;;;1572251;27;83589;-69
2022/06/12 08:38:30;;;;;;;;;2.00;2.00;;;;;;;;1565457;27;86321;-69
2022/06/12 08:39:15;;;;;;;;;1.67;1.67;;;;;;;;1560169;27;83448;-67
2022/06/12 08:40:02;;;;;;;;;3.00;3.00;;;;;;;;1560195;27;84362;-69
2022/06/12 08:40:50;;;;;;;;;3.00;3.00;;;;;;;;1564765;27;83789;-69
2022/06/12 08:41:44;;;;;;;;;2.00;2.00;;;;;;;;1571039;27;83856;-69
2022/06/12 08:42:53;;;;;;;;;2.00;2.00;;;;;;;;1571843;27;83351;-69
2022/06/12 08:43:40;;;;;;;;;1.75;1.75;;;;;;;;1540408;28;83402;-69
2022/06/12 08:44:31;;;;;;;;;2.00;2.00;;;;;;;;1540274;28;83340;-67
2022/06/12 08:45:19;;;;;;;;;2.00;2.00;;;;;;;;1540430;28;83467;-67
2022/06/12 08:46:09;;;;;;;;;2.40;2.40;;;;;;;;1540379;28;84604;-67
2022/06/12 08:47:03;;;;;;;;;1.60;1.60;;;;;;;;1540326;28;83589;-67
2022/06/12 08:47:51;;;;;;;;;2.80;2.80;;;;;;;;1540467;28;83573;-68
2022/06/12 08:48:44;;;;;;;;;1.00;1.00;;;;;;;;1540380;28;83518;-69
2022/06/12 08:50:04;;;;;;;;;1.20;1.20;;;;;;;;1540351;28;83511;-69
2022/06/12 08:50:57;;;;;;;;;1.60;1.60;;;;;;;;1522227;28;83808;-68
2022/06/12 08:51:48;;;;;;;;;2.00;2.00;;;;;;;;1522173;28;84119;-67
2022/06/12 08:52:33;;;;;;;;;1.00;1.00;;;;;;;;1522235;28;83485;-67
2022/06/12 08:53:30;;;;;;;;;1.00;1.00;;;;;;;;1519385;28;83660;-67
2022/06/12 08:54:25;;;;;;;;;1.40;1.40;;;;;;;;1516190;28;83453;-67
2022/06/12 08:55:19;;;;;;;;;2.80;2.80;;;;;;;;1516126;28;83784;-67
2022/06/12 08:56:13;;;;;;;;;1.00;1.00;;;;;;;;1515790;28;83761;-67
2022/06/12 08:57:04;;;;;;;;;0.00;0.00;;;;;;;;1516082;28;86484;-67
2022/06/12 08:57:58;;;;;;;;;1.60;1.60;;;;;;;;1516311;28;83713;-67
2022/06/12 08:58:47;;;;;;;;;1.00;1.00;;;;;;;;1516389;28;83682;-66
2022/06/12 08:59:35;;;;;;;;;0.40;0.40;;;;;;;;1516137;28;83519;-66
2022/06/12 09:00:21;;;;;;;;;0.60;0.60;;;;;;;;1516233;28;83851;-67
2022/06/12 09:01:08;;;;;;;;;0.00;0.00;;;;;;;;1518968;28;83531;-68
2022/06/12 09:01:53;;;;;;;;;0.80;0.80;;;;;;;;1516054;28;83200;-66
2022/06/12 09:02:39;;;;;;;;;1.00;1.00;;;;;;;;1515500;28;84246;-66
2022/06/12 09:03:27;;;;;;;;;0.00;0.00;;;;;;;;1515185;28;86166;-66
2022/06/12 09:04:15;;;;;;;;;0.00;0.00;;;;;;;;1516123;28;83766;-66
2022/06/12 09:05:01;;;;;;;;;0.40;0.40;;;;;;;;1517460;28;84155;-67
2022/06/12 09:05:51;;;;;;;;;1.00;1.00;;;;;;;;1522214;28;84156;-66
2022/06/12 09:06:47;;;;;;;;;1.00;1.00;;;;;;;;1515955;28;86153;-68
2022/06/12 09:07:45;;;;;;;;;0.00;0.00;;;;;;;;1516248;28;83292;-67
2022/06/12 09:08:57;;;;;;;;;1.00;1.00;;;;;;;;1521086;28;83909;-66
2022/06/12 09:09:48;;;;;;;;;0.40;0.40;;;;;;;;1512873;28;84347;-66
2022/06/12 09:10:39;;;;;;;;;1.00;1.00;;;;;;;;1509940;28;84080;-66
2022/06/12 09:11:46;;;;;;;;;0.00;0.00;;;;;;;;1510330;28;83985;-66
2022/06/12 09:12:39;;;;;;;;;0.00;0.00;;;;;;;;1498540;29;84337;-66
2022/06/12 09:13:24;;;;;;;;;0.20;0.20;;;;;;;;1498576;29;84001;-69
2022/06/12 09:14:09;;;;;;;;;0.00;0.00;;;;;;;;1498635;29;84453;-69
2022/06/12 09:14:54;;;;;;;;;0.00;0.00;;;;;;;;1498549;29;84160;-68
2022/06/12 09:15:46;;;;;;;;;1.50;1.50;;;;;;;;1498526;29;85224;-69
2022/06/12 09:16:34;;;;;;;;;1.00;1.00;;;;;;;;1498633;29;84296;-67
2022/06/12 09:17:35;;;;;;;;;1.20;1.20;;;;;;;;1498551;29;84048;-68
2022/06/12 09:18:39;;;;;;;;;1.40;1.40;;;;;;;;1498590;29;84110;-67
2022/06/12 09:19:27;;;;;;;;;1.00;1.00;;;;;;;;1497991;29;84215;-67
2022/06/12 09:20:21;;;;;;;;;0.00;0.00;;;;;;;;1498284;29;84554;-67
2022/06/12 09:21:07;;;;;;;;;0.80;0.80;;;;;;;;1498375;29;85586;-67
2022/06/12 09:21:58;;;;;;;;;1.00;1.00;;;;;;;;1515326;28;83886;-67
2022/06/12 09:22:54;;;;;;;;;1.00;1.00;;;;;;;;1516052;28;84214;-67
2022/06/12 09:23:57;;;;;;;;;0.00;0.00;;;;;;;;1516169;28;83976;-67
2022/06/12 09:24:43;;;;;;;;;1.60;1.60;;;;;;;;1515304;28;83840;-67
2022/06/12 09:25:38;;;;;;;;;1.75;1.75;;;;;;;;1522263;28;84118;-67
2022/06/12 09:26:36;;;;;;;;;1.00;1.00;;;;;;;;1548642;28;83275;-67
2022/06/12 09:27:22;;;;;;;;;0.00;0.00;;;;;;;;1546268;28;83435;-67
2022/06/12 09:28:13;;;;;;;;;0.00;0.00;;;;;;;;1546258;28;83291;-67
2022/06/12 09:28:58;;;;;;;;;1.00;1.00;;;;;;;;1546201;28;83402;-67
2022/06/12 09:29:59;;;;;;;;;2.00;2.00;;;;;;;;1541466;28;83503;-67
2022/06/12 09:30:44;;;;;;;;;0.20;0.20;;;;;;;;1540022;28;83364;-67
2022/06/12 09:31:35;;;;;;;;;0.00;0.00;;;;;;;;1540106;28;83286;-67
2022/06/12 09:32:32;;;;;;;;;2.00;2.00;;;;;;;;1540199;28;83296;-67
2022/06/12 09:33:17;;;;;;;;;1.00;1.00;;;;;;;;1540066;28;83544;-67
2022/06/12 09:34:03;;;;;;;;;0.00;0.00;;;;;;;;1533844;28;83527;-67
2022/06/12 09:34:58;;;;;;;;;0.00;0.00;;;;;;;;1535232;28;83465;-67
2022/06/12 09:35:52;;;;;;;;;2.00;2.00;;;;;;;;1537431;28;83506;-67
2022/06/12 09:36:47;;;;;;;;;0.40;0.40;;;;;;;;1539896;28;83686;-67
2022/06/12 09:38:45;;;;;;;;;1.00;1.00;;;;;;;;1540113;28;82972;-66
2022/06/12 09:39:30;;;;;;;;;0.75;0.75;;;;;;;;1540218;28;83767;-67
2022/06/12 09:40:31;;;;;;;;;0.50;0.50;;;;;;;;1540012;28;83572;-67
2022/06/12 09:41:27;;;;;;;;;0.40;0.40;;;;;;;;1540040;28;83417;-67
2022/06/12 09:42:12;;;;;;;;;0.00;0.00;;;;;;;;1540131;28;83449;-67
2022/06/12 09:43:00;;;;;;;;;0.00;0.00;;;;;;;;1540120;28;83376;-67
2022/06/12 09:43:51;;;;;;;;;1.00;1.00;;;;;;;;1540082;28;83301;-67
2022/06/12 09:44:48;;;;;;;;;0.80;0.80;;;;;;;;1540093;28;83076;-67
2022/06/12 09:45:52;;;;;;;;;1.00;1.00;;;;;;;;1540083;28;83259;-67
2022/06/12 09:46:37;;;;;;;;;0.20;0.20;;;;;;;;1540061;28;83636;-66
2022/06/12 09:47:38;;;;;;;;;1.00;1.00;;;;;;;;1540061;28;83753;-67
2022/06/12 09:48:26;;;;;;;;;0.40;0.40;;;;;;;;1535469;28;83332;-67
2022/06/12 09:49:22;;;;;;;;;0.00;0.00;;;;;;;;1537186;28;83769;-67
2022/06/12 09:50:11;;;;;;;;;0.00;0.00;;;;;;;;1537574;28;83437;-67
2022/06/12 09:51:18;;;;;;;;;0.00;0.00;;;;;;;;1557845;28;83172;-67
2022/06/12 09:52:22;;;;;;;;;0.80;0.80;;;;;;;;1555120;28;83451;-67
2022/06/12 09:53:25;;;;;;;;;0.80;0.80;;;;;;;;1555223;28;84354;-67
2022/06/12 09:54:10;;;;;;;;;0.20;0.20;;;;;;;;1554516;28;83682;-67
2022/06/12 09:54:59;;;;;;;;;1.50;1.50;;;;;;;;1555144;28;83675;-67
2022/06/12 09:55:48;;;;;;;;;0.80;0.80;;;;;;;;1555247;28;83457;-67
2022/06/12 09:56:40;;;;;;;;;0.40;0.40;;;;;;;;1555071;28;83420;-67
2022/06/12 09:57:28;;;;;;;;;1.00;1.00;;;;;;;;1555129;28;84001;-67
2022/06/12 09:58:20;;;;;;;;;0.00;0.00;;;;;;;;1555080;28;83352;-67
2022/06/12 09:59:10;;;;;;;;;0.00;0.00;;;;;;;;1554561;28;86343;-67
2022/06/12 10:00:01;;;;;;;;;1.00;1.00;;;;;;;;1554403;28;83794;-67
2022/06/12 10:00:52;;;;;;;;;0.00;0.00;;;;;;;;1554903;28;83149;-67
2022/06/12 10:01:40;;;;;;;;;0.00;0.00;;;;;;;;1556329;28;83297;-67
2022/06/12 10:02:30;;;;;;;;;0.00;0.00;;;;;;;;1560564;28;84968;-67
2022/06/12 10:03:19;;;;;;;;;1.00;1.00;;;;;;;;1556964;28;83543;-67
2022/06/12 10:04:17;;;;;;;;;1.20;1.20;;;;;;;;1554446;28;83691;-67
2022/06/12 10:05:02;;;;;;;;;0.40;0.40;;;;;;;;1554979;28;83863;-67
2022/06/12 10:05:54;;;;;;;;;1.25;1.00;;;;;;;;1555008;28;83651;-67
2022/06/12 10:06:46;;;;;;;;;0.00;0.00;;;;;;;;1554886;28;83577;-68
2022/06/12 10:07:39;;;;;;;;;0.20;0.20;;;;;;;;1554681;28;83772;-68
2022/06/12 10:08:49;;;;;;;;;1.60;1.60;;;;;;;;1554521;28;83765;-68
2022/06/12 10:09:35;;;;;;;;;0.00;0.00;;;;;;;;1559518;28;83958;-68
2022/06/12 10:10:23;;;;;;;;;1.00;1.00;;;;;;;;1561045;28;84071;-68
2022/06/12 10:11:14;;;;;;;;;1.00;1.00;;;;;;;;1561074;27;83740;-68
2022/06/12 10:12:03;;;;;;;;;1.00;1.00;;;;;;;;1556631;27;86071;-68
2022/06/12 10:12:51;;;;;;;;;0.00;0.00;;;;;;;;1561143;27;84074;-67
2022/06/12 10:13:43;;;;;;;;;1.00;1.00;;;;;;;;1561201;27;83528;-67
2022/06/12 10:14:34;;;;;;;;;1.60;1.60;;;;;;;;1561086;27;83457;-67
2022/06/12 10:15:22;;;;;;;;;0.20;0.20;;;;;;;;1563743;27;83981;-67
2022/06/12 10:16:14;;;;;;;;;2.00;1.00;;;;;;;;1560893;27;84512;-67
2022/06/12 10:17:02;;;;;;;;;0.00;0.00;;;;;;;;1561153;27;83327;-67
2022/06/12 10:17:59;;;;;;;;;0.40;0.40;;;;;;;;1561085;27;86730;-67
2022/06/12 10:18:49;;;;;;;;;1.00;1.00;;;;;;;;1559943;27;84076;-67
2022/06/12 10:19:34;;;;;;;;;0.00;0.00;;;;;;;;1555298;28;84265;-67
2022/06/12 10:20:29;;;;;;;;;0.00;0.00;;;;;;;;1554800;28;84358;-67
2022/06/12 10:21:17;;;;;;;;;0.40;0.20;;;;;;;;1554743;28;83167;-67
2022/06/12 10:22:13;;;;;;;;;0.00;0.00;;;;;;;;1554816;28;83691;-67
2022/06/12 10:22:59;;;;;;;;;0.00;0.00;;;;;;;;1554547;28;84008;-67
2022/06/12 10:23:44;;;;;;;;;2.00;2.00;;;;;;;;1554844;28;83215;-67
2022/06/12 10:24:29;;;;;;;;;2.00;2.00;;;;;;;;1558351;28;84004;-67
2022/06/12 10:25:21;;;;;;;;;4.50;4.50;;;;;;;;1560909;28;84483;-67
2022/06/12 10:26:17;;;;;;;;;5.00;5.00;;;;;;;;1560920;27;83019;-67
2022/06/12 10:27:07;;;;;;;;;4.00;4.00;;;;;;;;1561005;27;83350;-67
2022/06/12 10:28:04;;;;;;;;;3.00;3.00;;;;;;;;1560973;27;83989;-67
2022/06/12 10:29:01;;;;;;;;;2.00;2.00;;;;;;;;1561008;27;83990;-67
2022/06/12 10:29:50;;;;;;;;;1.00;1.00;;;;;;;;1561109;27;83137;-67
2022/06/12 10:30:40;;;;;;;;;0.00;0.00;;;;;;;;1561041;27;84446;-67
2022/06/12 10:31:25;;;;;;;;;5.20;5.20;;;;;;;;1560357;28;85784;-67
2022/06/12 10:32:12;;;;;;;;;6.75;6.75;;;;;;;;1560469;28;84340;-67
2022/06/12 10:33:06;;;;;;;;;4.00;4.00;;;;;;;;1560552;28;83927;-67
2022/06/12 10:34:03;;;;;;;;;3.20;3.20;;;;;;;;1558243;27;83189;-67
2022/06/12 10:34:49;;;;;;;;;3.00;3.00;;;;;;;;1554647;28;84268;-67
2022/06/12 10:35:45;;;;;;;;;4.75;4.75;;;;;;;;1554711;28;83870;-67
2022/06/12 10:36:31;;;;;;;;;2.80;2.80;;;;;;;;1554432;28;84198;-67
2022/06/12 10:37:19;;;;;;;;;1.00;1.00;;;;;;;;1554330;28;83312;-67
2022/06/12 10:38:06;;;;;;;;;1.60;1.60;;;;;;;;1559762;28;84220;-67
2022/06/12 10:39:02;;;;;;;;;1.40;1.40;;;;;;;;1559712;27;84064;-67
2022/06/12 10:39:59;;;;;;;;;0.00;0.00;;;;;;;;1557582;28;84276;-67
2022/06/12 10:40:58;;;;;;;;;0.00;0.00;;;;;;;;1554639;28;83349;-67
2022/06/12 10:41:51;;;;;;;;;1.60;1.60;;;;;;;;1554660;28;83269;-67
2022/06/12 10:42:43;;;;;;;;;1600.00;1166.50;;;;;;;;1553702;28;83481;-68
2022/06/12 10:43:35;;;;;;;;;2542.33;1514.33;;;;;;;;1552493;28;88345;-68
2022/06/12 10:44:38;;;;;;;;;1621.83;1110.50;;;;;;;;1552593;28;88557;-69
2022/06/12 10:45:26;;;;;;;;;1149.17;864.17;;;;;;;;1552036;28;89864;-68
2022/06/12 10:46:14;;;;;;;;;1349.00;1032.20;;;;;;;;1552718;28;86135;-67
2022/06/12 10:47:15;;;;;;;;;770.00;642.00;;;;;;;;1552432;28;88837;-67
2022/06/12 10:48:03;;;;;;;;;949.17;783.83;;;;;;;;1553139;28;86455;-67
2022/06/12 10:48:56;;;;;;;;;1012.83;817.17;;;;;;;;1553352;28;88934;-68
2022/06/12 10:49:42;;;;;;;;;614.40;543.80;;;;;;;;1552950;28;85913;-66
2022/06/12 10:50:35;;;;;;;;;228.25;216.75;;;;;;;;1553653;28;85992;-66
2022/06/12 10:51:27;;;;;;;;;49.60;41.80;;;;;;;;1553846;28;86216;-66
2022/06/12 10:52:17;;;;;;;;;38.40;33.20;;;;;;;;1553859;27;84716;-66
2022/06/12 10:53:13;;;;;;;;;56.25;46.50;;;;;;;;1554409;28;85203;-67
2022/06/12 10:54:00;;;;;;;;;64.00;53.25;;;;;;;;1557644;27;83316;-67
2022/06/12 10:54:46;;;;;;;;;49.00;41.75;;;;;;;;1560672;27;84447;-67
2022/06/12 10:55:34;;;;;;;;;257.60;254.80;;;;;;;;1560622;27;83484;-67
2022/06/12 10:56:22;;;;;;;;;68.00;61.20;;;;;;;;1560084;27;86135;-67
2022/06/12 10:57:24;;;;;;;;;53.50;43.50;;;;;;;;1560667;27;83756;-67
2022/06/12 10:58:12;;;;;;;;;73.20;67.20;;;;;;;;1560646;27;83355;-67
2022/06/12 10:59:10;;;;;;;;;101.00;101.00;;;;;;;;1560658;27;83569;-67
2022/06/12 10:59:55;;;;;;;;;63.75;53.00;;;;;;;;1559220;27;86237;-67
2022/06/12 11:00:42;;;;;;;;;84.25;84.25;;;;;;;;1560442;27;83516;-67
2022/06/12 11:01:34;;;;;;;;;52.50;44.25;;;;;;;;1560025;28;85009;-67
2022/06/12 11:02:19;;;;;;;;;36.80;32.40;;;;;;;;1559904;28;85897;-67
2022/06/12 11:03:23;;;;;;;;;19.50;18.25;;;;;;;;1560454;28;83244;-66
2022/06/12 11:04:13;;;;;;;;;8.00;8.00;;;;;;;;1563329;28;83413;-67
2022/06/12 11:05:17;;;;;;;;;9.60;9.60;;;;;;;;1560784;27;83847;-67
2022/06/12 11:06:03;;;;;;;;;5.00;5.00;;;;;;;;1560713;27;83716;-67
2022/06/12 11:06:54;;;;;;;;;11.00;11.00;;;;;;;;1560490;27;83413;-67
2022/06/12 11:07:51;;;;;;;;;7.20;7.20;;;;;;;;1560631;27;84155;-67
2022/06/12 11:08:45;;;;;;;;;10.60;8.40;;;;;;;;1558189;27;83999;-66
2022/06/12 11:09:36;;;;;;;;;3.40;3.40;;;;;;;;1553567;28;85683;-66
2022/06/12 11:10:40;;;;;;;;;1.00;1.00;;;;;;;;1554132;28;84081;-67
2022/06/12 11:11:39;;;;;;;;;1.60;1.60;;;;;;;;1554443;28;83321;-67
2022/06/12 11:12:34;;;;;;;;;3.60;3.60;;;;;;;;1554515;28;83664;-67
2022/06/12 11:13:39;;;;;;;;;4.00;4.00;;;;;;;;1554488;28;83513;-67
2022/06/12 11:14:41;;;;;;;;;6.00;5.00;;;;;;;;1554565;28;83665;-67
2022/06/12 11:15:39;;;;;;;;;9.40;9.40;;;;;;;;1554361;28;83662;-67
2022/06/12 11:16:24;;;;;;;;;4.80;4.80;;;;;;;;1554424;28;83269;-67
2022/06/12 11:17:20;;;;;;;;;1.50;1.50;;;;;;;;1554368;28;83710;-67
2022/06/12 11:18:16;;;;;;;;;3.00;3.00;;;;;;;;1554832;28;83489;-67
2022/06/12 11:19:08;;;;;;;;;3.40;3.40;;;;;;;;1554593;28;83234;-67
2022/06/12 11:19:56;;;;;;;;;0.80;0.80;;;;;;;;1554584;28;83735;-67
2022/06/12 11:20:41;;;;;;;;;4.40;4.40;;;;;;;;1553511;28;84413;-67
2022/06/12 11:21:45;;;;;;;;;4.00;4.00;;;;;;;;1554051;28;83185;-67
2022/06/12 11:22:30;;;;;;;;;1.80;1.80;;;;;;;;1554303;28;83895;-67
2022/06/12 11:23:41;;;;;;;;;2.50;2.50;;;;;;;;1554458;28;83498;-67
2022/06/12 11:24:39;;;;;;;;;5.40;5.40;;;;;;;;1554546;28;83274;-67
2022/06/12 11:25:46;;;;;;;;;4.00;4.00;;;;;;;;1554444;28;83796;-67
2022/06/12 11:26:43;;;;;;;;;6.00;6.00;;;;;;;;1554382;28;83579;-67
2022/06/12 11:27:38;;;;;;;;;4.20;4.20;;;;;;;;1553864;28;83153;-67
2022/06/12 11:28:38;;;;;;;;;5.20;5.20;;;;;;;;1554010;28;83579;-67
2022/06/12 11:29:35;;;;;;;;;1.80;1.80;;;;;;;;1554235;28;83672;-67
2022/06/12 11:30:32;;;;;;;;;2.60;2.60;;;;;;;;1554431;28;83762;-67
2022/06/12 11:31:17;;;;;;;;;6.40;6.40;;;;;;;;1557238;28;83296;-68
2022/06/12 11:32:06;;;;;;;;;1.50;1.50;;;;;;;;1554436;28;83188;-68
2022/06/12 11:33:03;;;;;;;;;3.00;3.00;;;;;;;;1553651;28;86048;-68
2022/06/12 11:33:57;;;;;;;;;0.40;0.40;;;;;;;;1554031;28;84051;-68
2022/06/12 11:34:42;;;;;;;;;7.00;7.00;;;;;;;;1554163;28;83778;-68
2022/06/12 11:35:43;;;;;;;;;10.25;10.25;;;;;;;;1553952;28;84091;-68
2022/06/12 11:36:37;;;;;;;;;3.00;3.00;;;;;;;;1554142;28;84480;-68
2022/06/12 11:37:25;;;;;;;;;2.80;2.80;;;;;;;;1554406;28;83955;-68
2022/06/12 11:38:22;;;;;;;;;2.40;2.40;;;;;;;;1554269;27;84252;-68
2022/06/12 11:39:20;;;;;;;;;2.60;2.60;;;;;;;;1554463;28;84520;-68
2022/06/12 11:40:08;;;;;;;;;4.60;4.60;;;;;;;;1554408;28;84142;-68
2022/06/12 11:41:08;;;;;;;;;1.40;1.40;;;;;;;;1554272;28;84320;-68
2022/06/12 11:41:56;;;;;;;;;6.40;6.40;;;;;;;;1554526;28;83891;-68
2022/06/12 11:43:00;;;;;;;;;3.20;3.20;;;;;;;;1554304;28;84189;-68
2022/06/12 11:43:55;;;;;;;;;1.00;1.00;;;;;;;;1554425;28;83326;-69
2022/06/12 11:44:49;;;;;;;;;1.20;1.20;;;;;;;;1554203;28;84323;-68
2022/06/12 11:45:49;;;;;;;;;2.00;2.00;;;;;;;;1554358;28;84041;-68
2022/06/12 11:46:53;;;;;;;;;0.80;0.80;;;;;;;;1554221;28;84212;-69
2022/06/12 11:47:48;;;;;;;;;1.00;1.00;;;;;;;;1554382;28;84216;-68
2022/06/12 11:48:36;;;;;;;;;5.00;5.00;;;;;;;;1559562;28;84513;-68
2022/06/12 11:49:27;;;;;;;;;3.00;3.00;;;;;;;;1560524;28;83185;-68
2022/06/12 11:50:31;;;;;;;;;0.80;0.80;;;;;;;;1560238;28;83422;-68
2022/06/12 11:51:36;;;;;;;;;1.60;1.60;;;;;;;;1557291;27;83011;-68
2022/06/12 11:52:21;;;;;;;;;0.00;0.00;;;;;;;;1560299;28;83978;-68
2022/06/12 11:53:18;;;;;;;;;3.00;3.00;;;;;;;;1557975;27;84439;-68
2022/06/12 11:54:16;;;;;;;;;1.40;1.40;;;;;;;;1554200;28;83071;-68
2022/06/12 11:55:12;;;;;;;;;3.00;3.00;;;;;;;;1554266;28;84234;-68
2022/06/12 11:56:00;;;;;;;;;2.20;2.20;;;;;;;;1554250;28;86630;-68
2022/06/12 11:56:51;;;;;;;;;3.00;3.00;;;;;;;;1557110;28;84555;-68
2022/06/12 11:57:45;;;;;;;;;1.00;1.00;;;;;;;;1554405;28;83210;-68
2022/06/12 11:58:51;;;;;;;;;1.00;1.00;;;;;;;;1554290;28;83537;-68
2022/06/12 11:59:42;;;;;;;;;0.00;0.00;;;;;;;;1554126;28;83075;-68
2022/06/12 12:00:53;;;;;;;;;2.60;2.60;;;;;;;;1553887;28;83487;-69
2022/06/12 12:01:44;;;;;;;;;1.00;1.00;;;;;;;;1557277;28;83457;-69
2022/06/12 12:02:49;;;;;;;;;0.60;0.60;;;;;;;;1554150;28;83217;-69
2022/06/12 12:03:34;;;;;;;;;2.80;2.80;;;;;;;;1559071;28;83095;-69
2022/06/12 12:04:40;;;;;;;;;1.00;1.00;;;;;;;;1560148;27;83152;-69
2022/06/12 12:05:36;;;;;;;;;0.00;0.00;;;;;;;;1560575;28;83263;-69
2022/06/12 12:06:48;;;;;;;;;0.00;0.00;;;;;;;;1560601;27;83178;-68
2022/06/12 12:07:53;;;;;;;;;3.00;3.00;;;;;;;;1557653;28;83746;-68
2022/06/12 12:08:44;;;;;;;;;4.00;4.00;;;;;;;;1558219;28;83563;-68
2022/06/12 12:09:30;;;;;;;;;1.00;1.00;;;;;;;;1560404;28;83549;-69
2022/06/12 12:10:24;;;;;;;;;5.00;5.00;;;;;;;;1560507;27;83217;-69
2022/06/12 12:11:09;;;;;;;;;5.00;5.00;;;;;;;;1560144;27;83316;-69
2022/06/12 12:11:59;;;;;;;;;1.50;1.50;;;;;;;;1559942;28;84257;-68
2022/06/12 12:12:49;;;;;;;;;2.20;2.20;;;;;;;;1559908;28;83595;-67
2022/06/12 12:13:41;;;;;;;;;1.60;1.60;;;;;;;;1560216;28;83779;-67
2022/06/12 12:14:32;;;;;;;;;2.00;2.00;;;;;;;;1560491;27;83306;-67
2022/06/12 12:15:37;;;;;;;;;0.60;0.60;;;;;;;;1560397;28;83389;-67
2022/06/12 12:16:28;;;;;;;;;0.20;0.20;;;;;;;;1560024;28;83366;-67
2022/06/12 12:17:18;;;;;;;;;0.00;0.00;;;;;;;;1560431;27;83546;-67
2022/06/12 12:18:08;;;;;;;;;1.00;1.00;;;;;;;;1558536;28;83398;-67
2022/06/12 12:18:57;;;;;;;;;1.00;1.00;;;;;;;;1560219;28;83351;-67
2022/06/12 12:20:06;;;;;;;;;1.00;1.00;;;;;;;;1560505;27;83241;-67
2022/06/12 12:20:51;;;;;;;;;0.20;0.20;;;;;;;;1557225;28;83365;-67
2022/06/12 12:21:42;;;;;;;;;0.00;0.00;;;;;;;;1560363;28;83479;-67
2022/06/12 12:22:30;;;;;;;;;0.00;0.00;;;;;;;;1559964;27;83234;-67
2022/06/12 12:23:24;;;;;;;;;1.40;1.40;;;;;;;;1562802;28;83238;-67
2022/06/12 12:24:13;;;;;;;;;1.20;1.20;;;;;;;;1560482;27;83805;-67
2022/06/12 12:25:18;;;;;;;;;1.60;1.60;;;;;;;;1559944;28;83870;-67
2022/06/12 12:26:11;;;;;;;;;1.00;1.00;;;;;;;;1559612;28;84278;-67
2022/06/12 12:26:58;;;;;;;;;0.60;0.60;;;;;;;;1560405;28;83590;-67
2022/06/12 12:27:46;;;;;;;;;1.80;1.80;;;;;;;;1560557;27;83511;-67
2022/06/12 12:28:37;;;;;;;;;0.80;0.80;;;;;;;;1560448;27;83800;-67
2022/06/12 12:29:23;;;;;;;;;0.00;0.00;;;;;;;;1560443;27;83664;-67
2022/06/12 12:30:19;;;;;;;;;1.40;1.40;;;;;;;;1560373;27;83513;-67
2022/06/12 12:31:10;;;;;;;;;0.00;0.00;;;;;;;;1560556;28;83279;-67
2022/06/12 12:31:56;;;;;;;;;1.00;1.00;;;;;;;;1560494;28;83331;-67
2022/06/12 12:32:41;;;;;;;;;1.00;1.00;;;;;;;;1557952;27;83501;-67
2022/06/12 12:33:28;;;;;;;;;0.50;0.50;;;;;;;;1559955;27;83801;-67
2022/06/12 12:34:14;;;;;;;;;0.20;0.20;;;;;;;;1560452;27;83732;-67
2022/06/12 12:35:00;;;;;;;;;0.80;0.80;;;;;;;;1560511;27;83559;-67
2022/06/12 12:41:13;;;;;;;;;2.00;2.00;;;;;;;;1566721;27;83376;-68
2022/06/12 12:41:58;;;;;;;;;0.20;0.20;;;;;;;;1566741;27;83844;-68
2022/06/12 12:42:43;;;;;;;;;1.00;1.00;;;;;;;;1566598;27;83305;-68
2022/06/12 12:43:28;;;;;;;;;1.00;1.00;;;;;;;;1566671;27;83417;-67
2022/06/12 12:44:15;;;;;;;;;1.25;1.25;;;;;;;;1565610;27;86283;-68
2022/06/12 12:45:20;;;;;;;;;0.00;0.00;;;;;;;;1566437;27;83832;-68
2022/06/12 12:46:06;;;;;;;;;0.80;0.80;;;;;;;;1564861;27;86418;-67
2022/06/12 12:46:52;;;;;;;;;0.40;0.40;;;;;;;;1566155;27;83351;-68
2022/06/12 12:47:37;;;;;;;;;0.00;0.00;;;;;;;;1557868;27;86764;-68
2022/06/12 12:48:22;;;;;;;;;0.00;0.00;;;;;;;;1553630;28;84495;-68
2022/06/12 12:49:08;;;;;;;;;0.75;0.75;;;;;;;;1553874;28;83923;-68
2022/06/12 12:50:08;;;;;;;;;1.00;1.00;;;;;;;;1554118;28;84187;-68
2022/06/12 12:50:55;;;;;;;;;0.00;0.00;;;;;;;;1554107;28;83423;-68
2022/06/12 12:51:40;;;;;;;;;0.00;0.00;;;;;;;;1554167;28;83419;-68
2022/06/12 12:52:25;;;;;;;;;3.00;2.00;;;;;;;;1554893;28;84498;-68
2022/06/12 12:53:28;;;;;;;;;0.00;0.00;;;;;;;;1560421;28;83869;-68
2022/06/12 12:54:18;;;;;;;;;0.00;0.00;;;;;;;;1560422;27;83915;-68
2022/06/12 12:55:05;;;;;;;;;0.00;0.00;;;;;;;;1560430;27;83277;-67
2022/06/12 12:56:08;;;;;;;;;0.00;0.00;;;;;;;;1560197;28;84241;-68
2022/06/12 12:57:01;;;;;;;;;0.00;0.00;;;;;;;;1560365;27;84032;-67
2022/06/12 12:57:47;;;;;;;;;0.00;0.00;;;;;;;;1559803;28;85456;-68
2022/06/12 12:58:34;;;;;;;;;0.25;0.25;;;;;;;;1559729;28;83883;-68
2022/06/12 12:59:20;;;;;;;;;0.00;0.00;;;;;;;;1560029;28;83465;-67
2022/06/12 13:00:08;;;;;;;;;0.60;0.60;;;;;;;;1560368;27;84059;-67
2022/06/12 13:01:25;;;;;;;;;0.60;0.60;;;;;;;;1560300;27;84060;-67
2022/06/12 13:02:29;;;;;;;;;0.00;0.00;;;;;;;;1552191;28;84515;-68
2022/06/12 13:03:28;;;;;;;;;0.00;0.00;;;;;;;;1557731;27;84223;-68
2022/06/12 13:04:15;;;;;;;;;0.00;0.00;;;;;;;;1559279;28;86117;-68
2022/06/12 13:05:13;;;;;;;;;0.00;0.00;;;;;;;;1553415;28;85802;-68
2022/06/12 13:06:14;;;;;;;;;0.00;0.00;;;;;;;;1557395;28;85997;-68
2022/06/12 13:07:07;;;;;;;;;0.00;0.00;;;;;;;;1558830;27;84452;-67
2022/06/12 13:07:55;;;;;;;;;0.00;0.00;;;;;;;;1553699;28;84160;-68
2022/06/12 13:08:53;;;;;;;;;0.00;0.00;;;;;;;;1553849;28;84398;-67
2022/06/12 13:09:44;;;;;;;;;0.00;0.00;;;;;;;;1553992;28;84200;-67
2022/06/12 13:10:29;;;;;;;;;0.00;0.00;;;;;;;;1553898;28;84005;-67
2022/06/12 13:11:33;;;;;;;;;0.00;0.00;;;;;;;;1553999;28;83912;-67
2022/06/12 13:12:21;;;;;;;;;0.60;0.60;;;;;;;;1553915;28;84186;-67
2022/06/12 13:13:42;;;;;;;;;0.00;0.00;;;;;;;;1556071;28;83452;-67
2022/06/12 13:14:43;;;;;;;;;0.80;0.80;;;;;;;;1541262;28;83576;-67
2022/06/12 13:15:46;;;;;;;;;0.40;0.40;;;;;;;;1547049;28;83592;-67
2022/06/12 13:16:37;;;;;;;;;0.00;0.00;;;;;;;;1546980;28;83025;-67
2022/06/12 13:17:41;;;;;;;;;0.00;0.00;;;;;;;;1546309;28;83649;-68
2022/06/12 13:18:29;;;;;;;;;0.80;0.80;;;;;;;;1547027;28;83329;-68
2022/06/12 13:19:33;;;;;;;;;1.00;1.00;;;;;;;;1550571;28;83260;-68
2022/06/12 13:20:21;;;;;;;;;0.00;0.00;;;;;;;;1553277;28;83399;-68
2022/06/12 13:21:07;;;;;;;;;0.00;0.00;;;;;;;;1553466;28;83365;-67
2022/06/12 13:22:20;;;;;;;;;1.00;1.00;;;;;;;;1552072;28;83441;-68
2022/06/12 13:23:21;;;;;;;;;0.00;0.00;;;;;;;;1553385;28;83445;-68
2022/06/12 13:24:09;;;;;;;;;0.00;0.00;;;;;;;;1554436;28;83435;-67
2022/06/12 13:24:58;;;;;;;;;0.00;0.00;;;;;;;;1554485;28;83479;-68
2022/06/12 13:25:45;;;;;;;;;0.20;0.20;;;;;;;;1554329;28;83525;-68
2022/06/12 13:26:32;;;;;;;;;1.00;1.00;;;;;;;;1554187;28;83451;-68
2022/06/12 13:27:20;;;;;;;;;0.40;0.40;;;;;;;;1554284;28;83525;-67
2022/06/12 13:28:05;;;;;;;;;0.20;0.20;;;;;;;;1554521;28;83184;-68
2022/06/12 13:28:57;;;;;;;;;1.00;1.00;;;;;;;;1554367;28;83547;-68
2022/06/12 13:29:43;;;;;;;;;0.00;0.00;;;;;;;;1554232;28;83445;-68
2022/06/12 13:30:34;;;;;;;;;0.20;0.20;;;;;;;;1554183;28;83805;-67
2022/06/12 13:31:20;;;;;;;;;0.80;0.80;;;;;;;;1553955;28;83254;-68
2022/06/12 13:32:06;;;;;;;;;1.00;1.00;;;;;;;;1552314;28;83376;-68
2022/06/12 13:32:51;;;;;;;;;0.50;0.50;;;;;;;;1554279;28;83891;-71
2022/06/12 13:33:38;;;;;;;;;1.00;1.00;;;;;;;;1554161;28;83533;-68
2022/06/12 13:34:24;;;;;;;;;0.80;0.80;;;;;;;;1554243;28;83482;-68
2022/06/12 13:35:32;;;;;;;;;0.40;0.40;;;;;;;;1554472;28;83208;-68
2022/06/12 13:36:18;;;;;;;;;0.00;0.00;;;;;;;;1554067;28;83144;-68
2022/06/12 13:37:04;;;;;;;;;0.00;0.00;;;;;;;;1553058;28;83563;-68
2022/06/12 13:37:52;;;;;;;;;0.40;0.40;;;;;;;;1557145;28;83515;-67
2022/06/12 13:38:48;;;;;;;;;0.00;0.00;;;;;;;;1553383;28;83886;-67
2022/06/12 13:39:37;;;;;;;;;0.00;0.00;;;;;;;;1548158;28;83869;-68
2022/06/12 13:40:25;;;;;;;;;0.00;0.00;;;;;;;;1547817;28;86115;-67
2022/06/12 13:41:24;;;;;;;;;0.40;0.40;;;;;;;;1548288;28;83324;-68
2022/06/12 13:42:12;;;;;;;;;0.20;0.20;;;;;;;;1548272;28;83724;-67
2022/06/12 13:43:09;;;;;;;;;0.00;0.00;;;;;;;;1548196;28;83762;-67
2022/06/12 13:43:56;;;;;;;;;0.20;0.20;;;;;;;;1548070;28;83490;-67
2022/06/12 13:44:43;;;;;;;;;0.00;0.00;;;;;;;;1548188;28;83363;-67
2022/06/12 13:45:28;;;;;;;;;0.00;0.00;;;;;;;;1548105;28;84253;-67
2022/06/12 13:46:22;;;;;;;;;0.00;0.00;;;;;;;;1547940;28;83374;-68
2022/06/12 13:47:21;;;;;;;;;1.00;1.00;;;;;;;;1547048;28;86247;-68
2022/06/12 13:48:20;;;;;;;;;0.00;0.00;;;;;;;;1548268;28;83595;-67
2022/06/12 13:49:13;;;;;;;;;0.00;0.00;;;;;;;;1553827;28;83660;-67
2022/06/12 13:49:59;;;;;;;;;2.00;0.00;;;;;;;;1555042;28;83815;-67
2022/06/12 13:50:49;;;;;;;;;1.00;1.00;;;;;;;;1554969;28;83948;-67
2022/06/12 13:51:41;;;;;;;;;1.00;1.00;;;;;;;;1554614;28;83800;-67
2022/06/12 13:52:34;;;;;;;;;0.00;0.00;;;;;;;;1554934;28;84410;-67
2022/06/12 13:53:19;;;;;;;;;0.00;0.00;;;;;;;;1554951;28;83706;-67
2022/06/12 13:54:15;;;;;;;;;0.00;0.00;;;;;;;;1554638;28;84209;-67
2022/06/12 13:55:01;;;;;;;;;0.00;0.00;;;;;;;;1554641;28;83765;-67
2022/06/12 13:55:46;;;;;;;;;0.00;0.00;;;;;;;;1554740;28;83359;-67
2022/06/12 13:56:31;;;;;;;;;0.00;0.00;;;;;;;;1554920;28;83634;-67
2022/06/12 13:57:29;;;;;;;;;0.00;0.00;;;;;;;;1554925;28;83291;-67